createdAt,value
2022-12-15T00:00:55.958Z,67.94
2022-12-15T00:03:43.046Z,67.91
2022-12-15T00:06:30.499Z,68.14
2022-12-15T00:09:20.578Z,67.34
2022-12-15T00:12:07.762Z,67.72
2022-12-15T00:14:55.146Z,67.32
2022-12-15T00:17:43.565Z,67.70
2022-12-15T00:20:31.152Z,67.68
2022-12-15T00:23:25.506Z,67.23
2022-12-15T00:26:13.123Z,67.76
2022-12-15T00:29:00.483Z,68.19
2022-12-15T00:31:47.598Z,67.99
2022-12-15T00:34:37.384Z,67.55
2022-12-15T00:37:25.134Z,67.88
2022-12-15T00:39:59.386Z,67.67
2022-12-15T00:42:29.466Z,68.13
2022-12-15T00:44:58.407Z,68.41
2022-12-15T00:47:27.275Z,67.66
2022-12-15T00:50:18.013Z,68.09
2022-12-15T00:53:05.060Z,67.94
2022-12-15T00:55:52.928Z,67.85
2022-12-15T00:58:39.825Z,68.07
2022-12-15T01:01:29.069Z,68.21
2022-12-15T01:04:16.438Z,68.51
2022-12-15T01:07:03.886Z,68.01
2022-12-15T01:09:51.276Z,68.37
2022-12-15T01:12:38.289Z,67.98
2022-12-15T01:15:25.681Z,68.33
2022-12-15T01:18:13.514Z,68.44
2022-12-15T01:20:44.711Z,67.87
2022-12-15T01:23:13.644Z,68.17
2022-12-15T01:25:43.284Z,67.94
2022-12-15T01:28:11.892Z,68.42
2022-12-15T01:30:40.834Z,68.03
2022-12-15T01:33:09.896Z,68.04
2022-12-15T01:35:39.503Z,67.72
2022-12-15T01:38:09.613Z,67.92
2022-12-15T01:40:47.962Z,68.46
2022-12-15T01:43:25.389Z,67.99
2022-12-15T01:45:59.199Z,67.95
2022-12-15T01:48:45.525Z,68.13
2022-12-15T01:51:28.221Z,68.44
2022-12-15T01:54:02.164Z,67.83
2022-12-15T01:56:37.732Z,67.99
2022-12-15T01:59:10.537Z,68.22
2022-12-15T02:01:39.319Z,67.88
2022-12-15T02:04:12.326Z,67.77
2022-12-15T02:06:41.046Z,67.66
2022-12-15T02:09:13.462Z,67.59
2022-12-15T02:12:00.506Z,68.08
2022-12-15T02:14:59.417Z,67.83
2022-12-15T02:17:42.857Z,68.03
2022-12-15T02:20:33.619Z,67.53
2022-12-15T02:23:05.017Z,67.72
2022-12-15T02:26:03.537Z,67.82
2022-12-15T02:28:44.348Z,67.57
2022-12-15T02:31:40.175Z,67.79
2022-12-15T02:34:32.286Z,67.84
2022-12-15T02:37:12.336Z,67.48
2022-12-15T02:39:40.985Z,68.07
2022-12-15T02:42:12.073Z,68.02
2022-12-15T02:44:50.293Z,67.99
2022-12-15T02:47:43.059Z,67.76
2022-12-15T02:50:14.605Z,67.91
2022-12-15T02:52:51.568Z,68.07
2022-12-15T02:55:27.229Z,67.82
2022-12-15T02:58:03.740Z,67.89
2022-12-15T03:00:38.945Z,67.69
2022-12-15T03:03:08.513Z,68.04
2022-12-15T03:05:37.557Z,67.92
2022-12-15T03:08:06.163Z,67.92
2022-12-15T03:10:35.112Z,67.93
2022-12-15T03:13:03.805Z,67.55
2022-12-15T03:15:35.594Z,67.67
2022-12-15T03:18:04.969Z,67.60
2022-12-15T03:20:34.001Z,67.85
2022-12-15T03:23:02.859Z,67.79
2022-12-15T03:25:31.980Z,67.91
2022-12-15T03:28:01.589Z,67.97
2022-12-15T03:30:32.810Z,67.66
2022-12-15T03:33:01.820Z,67.61
2022-12-15T03:35:31.879Z,67.92
2022-12-15T03:38:00.718Z,67.69
2022-12-15T03:40:29.542Z,67.35
2022-12-15T03:42:59.541Z,67.50
2022-12-15T03:45:32.970Z,67.71
2022-12-15T03:48:01.927Z,67.79
2022-12-15T03:50:31.360Z,67.42
2022-12-15T03:53:04.377Z,67.68
2022-12-15T03:55:34.169Z,67.45
2022-12-15T03:58:03.677Z,67.50
2022-12-15T04:00:32.421Z,67.73
2022-12-15T04:03:01.297Z,67.73
2022-12-15T04:05:35.033Z,67.59
2022-12-15T04:08:04.087Z,68.08
2022-12-15T04:10:35.323Z,67.91
2022-12-15T04:13:09.838Z,67.73
2022-12-15T04:15:40.275Z,67.64
2022-12-15T04:18:11.496Z,67.53
2022-12-15T04:20:41.173Z,67.64
2022-12-15T04:23:10.319Z,67.61
2022-12-15T04:25:57.504Z,67.37
2022-12-15T04:28:44.806Z,67.50
2022-12-15T04:31:36.140Z,67.50
2022-12-15T04:34:30.484Z,67.36
2022-12-15T04:37:18.193Z,67.41
2022-12-15T04:40:08.095Z,66.97
2022-12-15T04:42:59.814Z,67.07
2022-12-15T04:45:47.685Z,67.56
2022-12-15T04:48:35.734Z,66.86
2022-12-15T04:51:23.956Z,66.97
2022-12-15T04:54:11.572Z,67.09
2022-12-15T04:56:58.597Z,66.90
2022-12-15T04:59:45.595Z,66.84
2022-12-15T05:02:32.699Z,67.43
2022-12-15T05:05:20.017Z,66.99
2022-12-15T05:08:07.037Z,67.12
2022-12-15T05:10:53.838Z,67.39
2022-12-15T05:13:40.698Z,67.03
2022-12-15T05:16:27.531Z,67.13
2022-12-15T05:19:14.524Z,67.25
2022-12-15T05:22:01.430Z,67.32
2022-12-15T05:24:48.579Z,66.75
2022-12-15T05:27:35.314Z,67.08
2022-12-15T05:30:22.242Z,67.36
2022-12-15T05:32:51.062Z,67.26
2022-12-15T05:35:19.961Z,67.21
2022-12-15T05:37:48.469Z,67.30
2022-12-15T05:40:17.348Z,66.85
2022-12-15T05:42:50.286Z,66.94
2022-12-15T05:45:18.939Z,67.23
2022-12-15T05:47:54.992Z,66.66
2022-12-15T05:50:24.366Z,66.89
2022-12-15T05:52:52.975Z,66.93
2022-12-15T05:55:21.680Z,67.30
2022-12-15T05:57:55.050Z,66.90
2022-12-15T06:00:23.898Z,66.94
2022-12-15T06:02:52.530Z,66.96
2022-12-15T06:05:21.368Z,67.28
2022-12-15T06:07:49.889Z,67.46
2022-12-15T06:10:18.676Z,67.29
2022-12-15T06:12:47.802Z,67.08
2022-12-15T06:15:17.002Z,67.37
2022-12-15T06:17:45.746Z,67.21
2022-12-15T06:20:21.342Z,66.66
2022-12-15T06:22:50.336Z,67.23
2022-12-15T06:25:18.943Z,67.17
2022-12-15T06:27:47.707Z,67.08
2022-12-15T06:30:16.814Z,67.06
2022-12-15T06:32:45.336Z,66.90
2022-12-15T06:35:18.623Z,66.63
2022-12-15T06:37:47.355Z,66.54
2022-12-15T06:40:16.263Z,66.62
2022-12-15T06:42:45.084Z,67.01
2022-12-15T06:45:13.848Z,67.06
2022-12-15T06:47:42.563Z,66.82
2022-12-15T06:50:11.227Z,66.79
2022-12-15T06:52:40.125Z,66.67
2022-12-15T06:55:09.087Z,66.88
2022-12-15T06:57:38.114Z,66.69
2022-12-15T07:00:07.786Z,66.70
2022-12-15T07:02:36.724Z,66.71
2022-12-15T07:05:06.445Z,66.51
2022-12-15T07:07:35.227Z,66.55
2022-12-15T07:10:04.235Z,66.20
2022-12-15T07:12:33.018Z,66.62
2022-12-15T07:15:01.736Z,66.30
2022-12-15T07:17:30.799Z,66.69
2022-12-15T07:19:59.487Z,66.55
2022-12-15T07:22:29.734Z,66.68
2022-12-15T07:24:58.961Z,66.42
2022-12-15T07:27:27.725Z,66.45
2022-12-15T07:29:56.341Z,66.09
2022-12-15T07:32:25.501Z,66.36
2022-12-15T07:34:54.447Z,66.21
2022-12-15T07:37:23.199Z,66.12
2022-12-15T07:39:51.962Z,66.12
2022-12-15T07:42:20.603Z,66.01
2022-12-15T07:44:50.021Z,65.89
2022-12-15T07:47:19.045Z,66.41
2022-12-15T07:49:47.904Z,66.59
2022-12-15T07:52:17.024Z,66.22
2022-12-15T07:54:46.261Z,66.03
2022-12-15T07:57:14.980Z,66.39
2022-12-15T07:59:44.175Z,66.35
2022-12-15T08:02:14.176Z,66.52
2022-12-15T08:04:43.145Z,66.56
2022-12-15T08:07:12.626Z,65.83
2022-12-15T08:09:41.293Z,65.85
2022-12-15T08:12:10.019Z,66.36
2022-12-15T08:14:38.767Z,66.38
2022-12-15T08:17:07.746Z,66.43
2022-12-15T08:19:36.340Z,65.95
2022-12-15T08:22:05.142Z,65.87
2022-12-15T08:24:33.807Z,66.21
2022-12-15T08:27:02.738Z,66.00
2022-12-15T08:32:20.307Z,66.14
2022-12-15T08:34:50.480Z,66.27
2022-12-15T08:37:19.320Z,66.53
2022-12-15T08:39:48.828Z,66.36
2022-12-15T08:42:17.589Z,66.32
2022-12-15T08:44:50.507Z,66.59
2022-12-15T08:47:19.251Z,66.86
2022-12-15T08:49:49.225Z,66.23
2022-12-15T08:52:18.098Z,66.50
2022-12-15T08:54:47.044Z,66.96
2022-12-15T08:57:17.730Z,66.78
2022-12-15T08:59:46.531Z,66.72
2022-12-15T09:02:15.380Z,66.47
2022-12-15T09:04:46.050Z,66.86
2022-12-15T09:07:14.853Z,66.41
2022-12-15T09:09:43.991Z,67.00
2022-12-15T09:12:13.465Z,67.08
2022-12-15T09:14:42.183Z,66.32
2022-12-15T09:17:10.902Z,66.80
2022-12-15T09:19:39.700Z,66.86
2022-12-15T09:22:08.840Z,66.70
2022-12-15T09:24:37.532Z,66.99
2022-12-15T09:27:06.323Z,66.38
2022-12-15T09:29:35.831Z,67.05
2022-12-15T09:32:10.479Z,66.86
2022-12-15T09:34:43.642Z,67.04
2022-12-15T09:37:12.581Z,66.73
2022-12-15T09:39:44.549Z,67.34
2022-12-15T09:42:30.794Z,66.92
2022-12-15T09:45:22.320Z,67.26
2022-12-15T09:48:00.514Z,67.08
2022-12-15T09:50:50.414Z,67.53
2022-12-15T09:53:52.996Z,67.07
2022-12-15T09:56:20.075Z,67.37
2022-12-15T09:58:56.929Z,67.00
2022-12-15T10:01:36.941Z,67.32
2022-12-15T10:04:22.365Z,67.27
2022-12-15T10:07:35.611Z,67.29
2022-12-15T10:10:22.629Z,67.44
2022-12-15T10:15:57.305Z,67.44
2022-12-15T10:19:01.076Z,67.15
2022-12-15T10:21:31.993Z,66.95
2022-12-15T10:24:15.458Z,67.48
2022-12-15T10:26:49.347Z,67.21
2022-12-15T10:29:29.559Z,67.33
2022-12-15T10:32:17.663Z,67.36
2022-12-15T10:34:47.161Z,67.50
2022-12-15T10:37:22.079Z,67.51
2022-12-15T10:39:51.571Z,67.56
2022-12-15T10:42:26.005Z,67.58
2022-12-15T10:44:57.123Z,67.35
2022-12-15T10:47:35.107Z,67.89
2022-12-15T10:50:33.572Z,67.71
2022-12-15T10:53:09.723Z,67.81
2022-12-15T10:55:40.437Z,67.39
2022-12-15T10:58:52.816Z,67.84
2022-12-15T11:01:26.315Z,67.58
2022-12-15T11:03:57.272Z,68.00
2022-12-15T11:06:32.406Z,67.64
2022-12-15T11:09:30.266Z,67.72
2022-12-15T11:12:17.636Z,67.98
2022-12-15T11:14:49.491Z,68.05
2022-12-15T11:17:23.334Z,67.78
2022-12-15T11:20:04.964Z,68.02
2022-12-15T11:22:45.178Z,67.64
2022-12-15T11:25:38.222Z,68.04
2022-12-15T11:28:18.096Z,68.23
2022-12-15T11:31:07.922Z,67.80
2022-12-15T11:33:36.853Z,68.20
2022-12-15T11:36:22.105Z,67.92
2022-12-15T11:39:07.522Z,68.22
2022-12-15T11:42:00.806Z,68.09
2022-12-15T11:44:53.270Z,68.25
2022-12-15T11:47:36.095Z,68.38
2022-12-15T11:50:51.090Z,68.00
2022-12-15T11:53:33.076Z,68.25
2022-12-15T11:56:38.467Z,68.57
2022-12-15T11:59:49.402Z,68.23
2022-12-15T12:02:44.364Z,68.64
2022-12-15T12:05:40.844Z,68.59
2022-12-15T12:08:20.932Z,68.44
2022-12-15T12:11:00.349Z,68.59
2022-12-15T12:13:34.957Z,68.26
2022-12-15T12:16:26.219Z,68.37
2022-12-15T12:19:11.141Z,68.42
2022-12-15T12:25:18.603Z,68.88
2022-12-15T12:28:02.627Z,68.70
2022-12-15T12:30:50.667Z,68.86
2022-12-15T12:33:49.657Z,68.91
2022-12-15T12:36:18.985Z,69.07
2022-12-15T12:38:57.145Z,68.72
2022-12-15T12:42:01.358Z,68.71
2022-12-15T12:44:38.480Z,68.86
2022-12-15T12:47:30.659Z,68.97
2022-12-15T12:50:30.789Z,68.84
2022-12-15T12:53:04.443Z,69.29
2022-12-15T12:55:41.654Z,68.72
2022-12-15T12:58:40.929Z,68.76
2022-12-15T13:01:13.672Z,68.68
2022-12-15T13:03:45.937Z,68.83
2022-12-15T13:06:42.636Z,68.73
2022-12-15T13:09:21.296Z,68.75
2022-12-15T13:11:51.847Z,68.59
2022-12-15T13:14:32.354Z,69.09
2022-12-15T13:17:38.375Z,68.78
2022-12-15T13:20:28.220Z,69.08
2022-12-15T13:23:17.436Z,68.87
2022-12-15T13:26:06.316Z,68.63
2022-12-15T13:28:40.945Z,68.88
2022-12-15T13:31:19.912Z,69.20
2022-12-15T13:33:51.645Z,68.80
2022-12-15T13:36:41.259Z,69.47
2022-12-15T13:39:15.898Z,69.05
2022-12-15T13:44:58.576Z,68.96
2022-12-15T13:47:31.395Z,68.96
2022-12-15T13:50:07.836Z,69.17
2022-12-15T13:55:54.377Z,69.10
2022-12-15T13:58:28.173Z,69.14
2022-12-15T14:00:59.520Z,69.13
2022-12-15T14:03:28.540Z,69.12
2022-12-15T14:06:01.255Z,69.22
2022-12-15T14:08:31.317Z,69.06
2022-12-15T14:11:16.498Z,69.15
2022-12-15T14:13:54.398Z,69.40
2022-12-15T14:16:25.490Z,69.37
2022-12-15T14:19:15.650Z,69.20
2022-12-15T14:22:00.427Z,69.07
2022-12-15T14:24:38.974Z,69.53
2022-12-15T14:27:23.576Z,69.45
2022-12-15T14:30:24.495Z,69.67
2022-12-15T14:33:17.355Z,69.77
2022-12-15T14:35:54.494Z,69.21
2022-12-15T14:38:29.657Z,69.51
2022-12-15T14:41:01.756Z,69.53
2022-12-15T14:43:38.238Z,69.34
2022-12-15T14:46:16.383Z,69.78
2022-12-15T14:48:51.673Z,69.35
2022-12-15T14:51:23.287Z,69.80
2022-12-15T14:53:55.056Z,69.13
2022-12-15T14:56:31.430Z,69.55
2022-12-15T14:59:06.583Z,69.89
2022-12-15T15:01:58.694Z,69.65
2022-12-15T15:03:04.932Z,68.97
2022-12-15T15:03:10.011Z,67.38
2022-12-15T15:04:32.604Z,69.50
2022-12-15T15:07:06.280Z,69.86
2022-12-15T15:09:42.215Z,69.78
2022-12-15T15:12:16.592Z,69.52
2022-12-15T15:15:06.262Z,69.62
2022-12-15T15:17:44.707Z,70.19
2022-12-15T15:20:32.817Z,69.64
2022-12-15T15:23:20.599Z,69.72
2022-12-15T15:26:07.596Z,70.09
2022-12-15T15:28:41.876Z,69.92
2022-12-15T15:31:42.736Z,69.85
2022-12-15T15:34:12.399Z,70.23
2022-12-15T15:36:41.992Z,69.92
2022-12-15T15:39:16.551Z,70.08
2022-12-15T15:41:45.502Z,70.47
2022-12-15T15:44:16.669Z,69.95
2022-12-15T15:46:51.673Z,70.27
2022-12-15T15:49:22.738Z,70.31
2022-12-15T15:51:52.085Z,70.04
2022-12-15T15:54:29.423Z,70.04
2022-12-15T15:56:58.390Z,70.23
2022-12-15T15:59:27.563Z,70.97
2022-12-15T16:01:56.774Z,70.38
2022-12-15T16:04:28.603Z,70.29
2022-12-15T16:06:57.201Z,70.25
2022-12-15T16:09:26.469Z,70.32
2022-12-15T16:11:55.789Z,70.30
2022-12-15T16:14:24.648Z,70.61
2022-12-15T16:16:55.270Z,70.27
2022-12-15T16:19:26.424Z,70.14
2022-12-15T16:21:56.409Z,70.26
2022-12-15T16:24:28.314Z,70.61
2022-12-15T16:26:57.491Z,70.27
2022-12-15T16:29:26.330Z,70.55
2022-12-15T16:31:55.739Z,70.43
2022-12-15T16:34:25.414Z,70.30
2022-12-15T16:36:53.950Z,71.00
2022-12-15T16:39:49.297Z,70.91
2022-12-15T16:42:18.317Z,70.56
2022-12-15T16:44:47.139Z,70.35
2022-12-15T16:47:16.977Z,70.43
2022-12-15T16:49:45.954Z,70.39
2022-12-15T16:52:22.136Z,70.21
2022-12-15T16:54:51.238Z,70.37
2022-12-15T16:57:22.852Z,70.81
2022-12-15T16:59:51.669Z,70.91
2022-12-15T17:02:30.267Z,70.79
2022-12-15T17:04:59.343Z,70.98
2022-12-15T17:07:29.163Z,70.77
2022-12-15T17:09:58.385Z,70.96
2022-12-15T17:12:28.505Z,70.69
2022-12-15T17:14:59.301Z,70.44
2022-12-15T17:17:30.102Z,71.84
2022-12-15T17:22:53.406Z,71.05
2022-12-15T17:25:53.407Z,70.90
2022-12-15T17:28:25.281Z,70.74
2022-12-15T17:30:54.337Z,70.70
2022-12-15T17:33:26.323Z,70.32
2022-12-15T17:35:57.834Z,70.63
2022-12-15T17:38:26.865Z,70.45
2022-12-15T17:40:57.157Z,70.47
2022-12-15T17:43:35.418Z,70.48
2022-12-15T17:46:05.088Z,70.15
2022-12-15T17:48:34.233Z,70.50
2022-12-15T17:51:03.277Z,70.43
2022-12-15T17:53:32.534Z,70.72
2022-12-15T17:56:01.695Z,70.40
2022-12-15T17:58:30.564Z,70.36
2022-12-15T18:00:59.364Z,70.73
2022-12-15T18:03:28.557Z,70.86
2022-12-15T18:05:58.335Z,70.52
2022-12-15T18:08:28.924Z,70.37
2022-12-15T18:10:59.321Z,70.94
2022-12-15T18:13:35.294Z,70.63
2022-12-15T18:16:04.678Z,71.04
2022-12-15T18:18:34.148Z,70.36
2022-12-15T18:21:17.565Z,70.53
2022-12-15T18:23:48.463Z,70.48
2022-12-15T18:26:17.305Z,70.32
2022-12-15T18:28:46.335Z,70.70
2022-12-15T18:31:22.077Z,70.26
2022-12-15T18:33:51.212Z,70.26
2022-12-15T18:36:20.941Z,70.51
2022-12-15T18:38:50.546Z,70.92
2022-12-15T18:41:21.842Z,70.75
2022-12-15T18:43:51.826Z,70.66
2022-12-15T18:46:22.963Z,70.86
2022-12-15T18:48:51.793Z,70.91
2022-12-15T18:51:25.725Z,71.04
2022-12-15T18:53:54.399Z,70.55
2022-12-15T18:56:24.530Z,70.98
2022-12-15T18:58:53.464Z,70.36
2022-12-15T19:01:22.310Z,71.00
2022-12-15T19:03:51.392Z,70.36
2022-12-15T19:06:37.202Z,71.04
2022-12-15T19:09:12.255Z,70.36
2022-12-15T19:11:41.628Z,70.36
2022-12-15T19:14:37.212Z,70.89
2022-12-15T19:17:24.845Z,71.12
2022-12-15T19:20:13.882Z,71.01
2022-12-15T19:22:44.268Z,70.43
2022-12-15T19:25:25.474Z,70.83
2022-12-15T19:28:00.849Z,70.59
2022-12-15T19:30:37.024Z,70.57
2022-12-15T19:33:07.748Z,70.70
2022-12-15T19:35:38.263Z,70.79
2022-12-15T19:38:14.107Z,70.96
2022-12-15T19:40:43.188Z,71.06
2022-12-15T19:43:16.676Z,70.76
2022-12-15T19:45:45.415Z,71.02
2022-12-15T19:48:16.575Z,70.87
2022-12-15T19:50:54.790Z,70.54
2022-12-15T19:53:25.557Z,70.93
2022-12-15T19:56:00.619Z,70.50
2022-12-15T19:58:33.079Z,70.97
2022-12-15T20:01:22.363Z,70.97
2022-12-15T20:03:54.576Z,71.05
2022-12-15T20:06:28.639Z,70.67
2022-12-15T20:08:58.510Z,70.85
2022-12-15T20:11:31.232Z,71.06
2022-12-15T20:14:04.583Z,71.25
2022-12-15T20:16:32.997Z,71.44
2022-12-15T20:19:01.999Z,71.04
2022-12-15T20:21:35.214Z,70.69
2022-12-15T20:24:13.264Z,70.81
2022-12-15T20:26:43.541Z,70.92
2022-12-15T20:29:41.908Z,71.62
2022-12-15T20:32:20.216Z,72.07
2022-12-15T20:34:49.413Z,71.19
2022-12-15T20:37:24.944Z,71.35
2022-12-15T20:39:57.484Z,71.37
2022-12-15T20:42:26.913Z,71.32
2022-12-15T20:44:55.527Z,70.77
2022-12-15T20:47:27.558Z,71.41
2022-12-15T20:49:56.620Z,71.19
2022-12-15T20:52:27.857Z,70.87
2022-12-15T20:54:57.196Z,70.98
2022-12-15T20:57:25.996Z,70.89
2022-12-15T20:59:54.502Z,70.82
2022-12-15T21:02:25.525Z,70.74
2022-12-15T21:04:55.786Z,70.75
2022-12-15T21:07:24.724Z,71.04
2022-12-15T21:09:53.340Z,70.58
2022-12-15T21:12:25.554Z,71.15
2022-12-15T21:14:55.109Z,71.27
2022-12-15T21:17:26.664Z,71.25
2022-12-15T21:19:55.267Z,71.02
2022-12-15T21:22:26.831Z,71.52
2022-12-15T21:24:58.034Z,70.98
2022-12-15T21:27:26.743Z,70.95
2022-12-15T21:29:55.445Z,71.35
2022-12-15T21:32:24.026Z,71.19
2022-12-15T21:34:52.680Z,70.79
2022-12-15T21:37:29.461Z,71.13
2022-12-15T21:40:00.248Z,71.05
2022-12-15T21:42:49.679Z,71.17
2022-12-15T21:45:21.706Z,71.12
2022-12-15T21:48:09.792Z,71.04
2022-12-15T21:50:39.714Z,71.00
2022-12-15T21:53:11.219Z,70.86
2022-12-15T21:55:41.916Z,70.78
2022-12-15T21:58:20.545Z,70.62
2022-12-15T22:00:49.338Z,70.77
2022-12-15T22:03:18.070Z,70.96
2022-12-15T22:05:46.714Z,71.11
2022-12-15T22:08:18.885Z,71.10
2022-12-15T22:10:49.874Z,70.91
2022-12-15T22:13:23.278Z,71.16
2022-12-15T22:15:52.085Z,70.84
2022-12-15T22:18:20.844Z,71.21
2022-12-15T22:20:51.429Z,71.02
2022-12-15T22:23:24.097Z,71.23
2022-12-15T22:25:56.250Z,70.52
2022-12-15T22:28:28.732Z,70.64
2022-12-15T22:30:58.665Z,70.64
2022-12-15T22:33:29.495Z,70.75
2022-12-15T22:35:58.327Z,70.67
2022-12-15T22:38:27.108Z,71.06
2022-12-15T22:40:59.545Z,71.20
2022-12-15T22:43:53.527Z,71.00
2022-12-15T22:46:25.540Z,70.98
2022-12-15T22:48:55.077Z,70.93
2022-12-15T22:51:23.915Z,70.71
2022-12-15T22:53:52.852Z,70.77
2022-12-15T22:56:31.614Z,70.65
2022-12-15T22:59:09.252Z,70.73
2022-12-15T23:01:38.602Z,70.58
2022-12-15T23:04:07.374Z,70.94
2022-12-15T23:06:36.373Z,70.68
2022-12-15T23:09:06.191Z,70.58
2022-12-15T23:11:42.215Z,70.60
2022-12-15T23:14:17.016Z,71.29
2022-12-15T23:16:47.420Z,70.55
2022-12-15T23:19:24.520Z,70.65
2022-12-15T23:21:54.087Z,71.16
2022-12-15T23:24:22.983Z,70.95
2022-12-15T23:26:51.714Z,70.82
2022-12-15T23:29:21.012Z,71.15
2022-12-15T23:31:50.652Z,70.49
2022-12-15T23:34:19.671Z,70.52
2022-12-15T23:36:48.791Z,70.83
2022-12-15T23:39:17.995Z,70.93
2022-12-15T23:41:46.831Z,71.10
2022-12-15T23:44:15.592Z,71.17
2022-12-15T23:46:44.875Z,70.78
2022-12-15T23:49:14.137Z,70.65
2022-12-15T23:51:43.017Z,70.91
2022-12-15T23:54:11.717Z,71.11
2022-12-15T23:56:41.147Z,70.79
2022-12-15T23:59:10.189Z,71.27
